ADDS METAR Data INFO
IDs: Format: Raw Decoded Include TAF

Data at: 0611 UTC 25 Jun 2018

PAKN 250554Z 27006KT 10SM OVC075 13/05 A2992 RMK AO2 SLP131 T01330050 10172 20133 57004 $
PAKN 250454Z 27008KT 10SM CLR 14/04 A2992 RMK AO2 SLP133 T01440044 $
PAKN 250354Z 26010KT 10SM CLR 16/05 A2992 RMK AO2 SLP132 T01560050 $
PAKN 250254Z 25009KT 10SM CLR 16/05 A2993 RMK AO2 SLP134 T01610050 56014 $
PAKN 250154Z 24009KT 220V280 10SM FEW041 17/06 A2994 RMK AO2 SLP138 T01670056 $
PAKN 250054Z 23009KT 10SM SCT045 SCT080 17/05 A2996 RMK AO2 SLP144 T01670050 $
PAKN 242354Z 26006KT 10SM BKN080 17/06 A2997 RMK AO2 SLP148 T01670061 10167 20128 58010 $
PAKN 242254Z 24009KT 10SM OVC085 16/06 A2998 RMK AO2 SLP152 T01560056 $
PAKN 242154Z 26013KT 10SM FEW027 OVC085 14/07 A3000 RMK AO2 SLP158 T01440067 $
PAKN 242054Z 23011KT 10SM FEW031 OVC080 14/07 A3000 RMK AO2 SLP159 T01440067 57002 $
PAKN 241954Z 25008KT 10SM OVC075 14/06 A3000 RMK AO2 SLP159 T01440061 $
PAKN 241854Z 22008KT 10SM SCT047 SCT055 OVC075 13/07 A3000 RMK AO2 SLP160 T01330067 $
PAKN 241754Z VRB04KT 10SM SCT070 13/07 A3001 RMK AO2 SLP161 T01280067 10139 20061 56010 $
PAKN 241654Z 23006KT 10SM CLR 12/07 A3001 RMK AO2 SLP163 T01170072 $
PAKN 241554Z 19005KT 10SM BKN045 09/08 A3002 RMK AO2 SLP167 T00940078 $
PAKN 241454Z AUTO 17004KT 10SM OVC075 08/07 A3004 RMK AO2 SLP171 T00830072 51001 TSNO $
PAKN 241354Z 20004KT 10SM SCT060 BKN120 07/06 A3003 RMK AO2 SLP170 T00670056 $
PAKN 241254Z 17004KT 8SM SCT070 BKN095 07/06 A3004 RMK AO2 SLP171 T00670056 $
PAKN 241154Z 19005KT 10SM BKN070 08/07 A3003 RMK AO2 SLP169 70009 T00830067 10133 20083 58002 $
PAKN 241054Z 25005KT 10SM SCT070 09/07 A3003 RMK AO2 SLP170 T00940072 $
PAKN 240954Z 28006KT 10SM BKN070 09/07 A3004 RMK AO2 SLP171 T00940072 $
PAKN 240854Z 24005KT 10SM BKN070 10/08 A3004 RMK AO2 SLP171 T01000078 401670089 58001 $
PAKN 240754Z 26005KT 10SM BKN075 12/08 A3004 RMK AO2 SLP171 T01170078 $
PAKN 240654Z 25006KT 10SM BKN070 12/08 A3004 RMK AO2 SLP173 T01220083 $
PAKN 240554Z 29007KT 10SM OVC070 13/08 A3004 RMK AO2 RAB03E28 SLP172 P0001 60007 T01330078 10167 20117 55001 $
PAKN 240454Z 31005KT 10SM SCT045 OVC060 14/07 A3004 RMK AO2 SLP172 T01440067 $
PAKN 240354Z 30004KT 10SM SCT039 BKN070 15/07 A3004 RMK AO2 SLP171 T01500072 $
PAKN 240254Z 28007KT 10SM OVC095 14/08 A3004 RMK AO2 SLP173 60006 T01440078 58005 $
PAKN 240154Z 29007KT 10SM OVC075 14/09 A3005 RMK AO2 RAE03 SLP176 P0000 T01390089 $
PAKN 240054Z 25003KT 10SM -RA OVC060 13/09 A3006 RMK AO2 RAB00 SLP178 P0006 T01330089 $
PAKN 232354Z 01004KT 10SM BKN055 OVC070 14/06 A3006 RMK AO2 RAE19 SLP178 P0000 60000 T01440061 10150 20111 58004 $
PAKN 232254Z 34004KT 10SM -RA OVC046 14/07 A3007 RMK AO2 SLP181 P0000 T01390072 $
PAKN 232154Z 00000KT 9SM -RA OVC035 14/06 A3006 RMK AO2 RAB48 SLP181 P0000 T01390061 $
PAKN 232054Z VRB04KT 10SM SCT026 OVC060 14/06 A3007 RMK AO2 SLP183 T01440061 58005 $
PAKN 231954Z 25005KT 10SM OVC060 13/07 A3008 RMK AO2 SLP186 T01280067 $
PAKN 231854Z 26004KT 10SM OVC045 12/07 A3009 RMK AO2 SLP188 T01170072 $